createdAt,value
2024-05-09T00:01:08.518Z,102060.38
2024-05-09T00:03:44.523Z,102063.94
2024-05-09T00:06:16.414Z,102059.41
2024-05-09T00:08:46.456Z,102063.84
2024-05-09T00:11:18.434Z,102066.41
2024-05-09T00:13:48.199Z,102058.97
2024-05-09T00:16:20.336Z,102066.72
2024-05-09T00:18:53.261Z,102065.03
2024-05-09T00:21:25.334Z,102061.59
2024-05-09T00:23:55.136Z,102069.25
2024-05-09T00:26:27.502Z,102066.56
2024-05-09T00:28:57.233Z,102056.66
2024-05-09T00:31:29.343Z,102057.88
2024-05-09T00:34:02.321Z,102053.69
2024-05-09T00:36:34.360Z,102047.97
2024-05-09T00:39:04.284Z,102052.53
2024-05-09T00:41:36.435Z,102050.81
2024-05-09T00:44:06.217Z,102050.09
2024-05-09T00:46:38.396Z,102045.84
2024-05-09T00:49:12.315Z,102050.47
2024-05-09T00:51:44.751Z,102049.00
2024-05-09T00:54:15.388Z,102038.81
2024-05-09T00:56:47.189Z,102042.81
2024-05-09T00:59:17.466Z,102041.41
2024-05-09T01:01:49.189Z,102040.88
2024-05-09T01:04:22.232Z,102043.91
2024-05-09T01:06:54.402Z,102038.69
2024-05-09T01:09:24.242Z,102042.63
2024-05-09T01:11:56.536Z,102051.66
2024-05-09T01:14:26.239Z,102042.13
2024-05-09T01:16:57.202Z,102049.19
2024-05-09T01:19:32.781Z,102049.28
2024-05-09T01:22:04.560Z,102039.91
2024-05-09T01:24:37.441Z,102034.13
2024-05-09T01:27:08.218Z,102039.59
2024-05-09T01:29:39.426Z,102035.16
2024-05-09T01:32:10.362Z,102033.53
2024-05-09T01:34:41.438Z,102025.69
2024-05-09T01:37:12.253Z,102037.47
2024-05-09T01:39:45.307Z,102031.69
2024-05-09T01:42:17.449Z,102033.81
2024-05-09T01:44:47.633Z,102036.97
2024-05-09T01:47:18.556Z,102036.06
2024-05-09T01:49:48.274Z,102037.94
2024-05-09T01:52:20.478Z,102029.41
2024-05-09T01:54:53.269Z,102030.56
2024-05-09T01:57:25.488Z,102031.84
2024-05-09T01:59:56.265Z,102026.72
2024-05-09T02:02:28.573Z,102028.97
2024-05-09T02:04:58.381Z,102035.88
2024-05-09T02:07:30.551Z,102029.13
2024-05-09T02:10:06.582Z,102038.00
2024-05-09T02:12:40.486Z,102041.56
2024-05-09T02:15:11.307Z,102035.03
2024-05-09T02:17:43.695Z,102038.88
2024-05-09T02:20:22.549Z,102033.78
2024-05-09T02:23:00.612Z,102035.63
2024-05-09T02:25:33.341Z,102041.91
2024-05-09T02:28:05.539Z,102042.50
2024-05-09T02:30:40.295Z,102046.28
2024-05-09T02:33:12.658Z,102037.63
2024-05-09T02:35:44.552Z,102030.06
2024-05-09T02:38:13.615Z,102032.03
2024-05-09T02:40:46.552Z,102030.88
2024-05-09T02:43:15.048Z,102038.75
2024-05-09T02:45:45.549Z,102032.66
2024-05-09T02:48:14.447Z,102034.66
2024-05-09T02:50:44.936Z,102035.41
2024-05-09T02:53:13.861Z,102031.97
2024-05-09T02:55:47.625Z,102031.31
2024-05-09T02:58:16.110Z,102038.19
2024-05-09T03:00:46.646Z,102035.41
2024-05-09T03:03:15.848Z,102032.13
2024-05-09T03:05:46.994Z,102031.28
2024-05-09T03:08:15.374Z,102024.59
2024-05-09T03:10:48.588Z,102028.53
2024-05-09T03:13:17.043Z,102025.38
2024-05-09T03:15:47.613Z,102021.09
2024-05-09T03:18:16.234Z,102025.41
2024-05-09T03:20:46.601Z,102023.00
2024-05-09T03:23:14.755Z,102024.13
2024-05-09T03:25:47.592Z,102018.94
2024-05-09T03:28:15.735Z,102013.66
2024-05-09T03:30:46.607Z,102021.50
2024-05-09T03:33:17.909Z,102016.59
2024-05-09T03:35:51.608Z,102010.28
2024-05-09T03:38:22.516Z,102023.19
2024-05-09T03:40:56.638Z,102018.94
2024-05-09T03:43:27.396Z,102020.47
2024-05-09T03:45:58.608Z,102022.13
2024-05-09T03:48:26.929Z,102013.41
2024-05-09T03:50:57.646Z,102015.91
2024-05-09T03:53:26.861Z,102018.31
2024-05-09T03:56:00.779Z,102024.41
2024-05-09T03:58:28.746Z,102022.25
2024-05-09T04:00:59.793Z,102016.88
2024-05-09T04:03:28.009Z,102022.50
2024-05-09T04:05:58.618Z,102022.97
2024-05-09T04:08:26.816Z,102019.50
2024-05-09T04:10:59.678Z,102024.88
2024-05-09T04:13:28.041Z,102025.28
2024-05-09T04:15:58.662Z,102030.88
2024-05-09T04:18:26.323Z,102029.44
2024-05-09T04:20:56.800Z,102035.19
2024-05-09T04:23:25.776Z,102035.78
2024-05-09T04:25:55.592Z,102032.03
2024-05-09T04:28:27.675Z,102033.19
2024-05-09T04:30:57.446Z,102029.94
2024-05-09T04:33:27.811Z,102024.84
2024-05-09T04:35:57.484Z,102025.09
2024-05-09T04:38:26.695Z,102023.59
2024-05-09T04:40:56.512Z,102029.47
2024-05-09T04:43:28.681Z,102032.78
2024-05-09T04:45:58.481Z,102040.72
2024-05-09T04:48:27.848Z,102028.13
2024-05-09T04:50:58.509Z,102032.13
2024-05-09T04:53:27.773Z,102033.22
2024-05-09T04:55:57.546Z,102033.38
2024-05-09T04:58:29.697Z,102030.06
2024-05-09T05:00:59.551Z,102035.53
2024-05-09T05:03:27.942Z,102035.16
2024-05-09T05:05:58.046Z,102037.22
2024-05-09T05:08:26.777Z,102031.84
2024-05-09T05:10:57.058Z,102041.78
2024-05-09T05:13:25.721Z,102039.06
2024-05-09T05:15:58.801Z,102044.19
2024-05-09T05:18:28.876Z,102044.88
2024-05-09T05:20:59.802Z,102036.41
2024-05-09T05:23:30.788Z,102035.44
2024-05-09T05:25:58.274Z,102042.13
2024-05-09T05:28:28.731Z,102038.50
2024-05-09T05:30:58.883Z,102038.91
2024-05-09T05:33:30.989Z,102040.44
2024-05-09T05:35:58.137Z,102040.97
2024-05-09T05:38:28.893Z,102042.34
2024-05-09T05:40:56.958Z,102038.81
2024-05-09T05:43:27.590Z,102044.56
2024-05-09T05:45:59.776Z,102043.88
2024-05-09T05:48:29.678Z,102044.53
2024-05-09T05:51:00.424Z,102045.47
2024-05-09T05:53:31.592Z,102041.97
2024-05-09T05:56:00.809Z,102044.84
2024-05-09T05:58:30.610Z,102044.78
2024-05-09T06:01:02.828Z,102049.81
2024-05-09T06:03:32.792Z,102036.22
2024-05-09T06:06:04.015Z,102037.06
2024-05-09T06:08:34.619Z,102041.28
2024-05-09T06:11:03.998Z,102036.75
2024-05-09T06:13:34.581Z,102044.84
2024-05-09T06:16:06.780Z,102046.22
2024-05-09T06:18:36.722Z,102047.84
2024-05-09T06:21:05.852Z,102050.34
2024-05-09T06:23:36.788Z,102049.53
2024-05-09T06:26:05.850Z,102042.94
2024-05-09T06:28:35.570Z,102046.66
2024-05-09T06:31:07.831Z,102049.16
2024-05-09T06:33:37.767Z,102042.63
2024-05-09T06:36:06.819Z,102038.25
2024-05-09T06:38:37.959Z,102046.03
2024-05-09T06:41:06.902Z,102045.53
2024-05-09T06:43:37.393Z,102046.03
2024-05-09T06:46:08.845Z,102044.47
2024-05-09T06:48:38.734Z,102050.09
2024-05-09T06:51:07.944Z,102045.97
2024-05-09T06:53:37.742Z,102043.56
2024-05-09T06:56:07.894Z,102049.97
2024-05-09T06:58:37.673Z,102043.34
2024-05-09T07:01:09.882Z,102046.38
2024-05-09T07:03:39.761Z,102050.84
2024-05-09T07:06:08.375Z,102046.69
2024-05-09T07:08:38.955Z,102055.63
2024-05-09T07:11:07.483Z,102047.84
2024-05-09T07:13:37.946Z,102046.72
2024-05-09T07:16:09.193Z,102053.16
2024-05-09T07:18:40.056Z,102056.47
2024-05-09T07:21:08.982Z,102055.38
2024-05-09T07:23:38.808Z,102053.69
2024-05-09T07:26:07.912Z,102053.63
2024-05-09T07:28:37.714Z,102050.63
2024-05-09T07:31:09.918Z,102049.50
2024-05-09T07:33:39.828Z,102048.69
2024-05-09T07:36:08.972Z,102051.16
2024-05-09T07:38:38.826Z,102059.78
2024-05-09T07:41:07.982Z,102060.03
2024-05-09T07:43:37.700Z,102061.28
2024-05-09T07:47:13.937Z,102056.00
2024-05-09T07:50:35.874Z,102052.97
2024-05-09T07:53:20.427Z,102051.47
2024-05-09T07:54:39.796Z,102050.41
2024-05-09T07:57:08.969Z,102046.47
2024-05-09T07:59:38.729Z,102047.53
2024-05-09T08:02:10.090Z,102057.13
2024-05-09T08:04:40.171Z,102053.75
2024-05-09T08:07:09.087Z,102052.31
2024-05-09T08:09:39.815Z,102041.00
2024-05-09T08:12:09.959Z,102041.16
2024-05-09T08:14:41.107Z,102039.00
2024-05-09T08:17:12.976Z,102036.13
2024-05-09T08:19:43.348Z,102044.19
2024-05-09T08:22:14.081Z,102039.41
2024-05-09T08:24:42.168Z,102035.25
2024-05-09T08:27:13.027Z,102049.06
2024-05-09T08:29:40.568Z,102034.13
2024-05-09T08:32:15.097Z,102031.78
2024-05-09T08:34:44.670Z,102041.19
2024-05-09T08:37:22.131Z,102043.63
2024-05-09T08:39:51.523Z,102033.84
2024-05-09T08:42:22.019Z,102036.84
2024-05-09T08:44:50.134Z,102038.13
2024-05-09T08:47:24.126Z,102031.53
2024-05-09T08:49:58.230Z,102037.66
2024-05-09T08:52:30.010Z,102035.22
2024-05-09T08:54:57.179Z,102042.69
2024-05-09T08:57:30.068Z,102036.72
2024-05-09T09:00:04.821Z,102037.88
2024-05-09T09:02:41.161Z,102045.47
2024-05-09T09:05:11.359Z,102041.56
2024-05-09T09:07:42.555Z,102032.19
2024-05-09T09:10:17.682Z,102024.19
2024-05-09T09:12:58.745Z,102039.97
2024-05-09T09:15:27.180Z,102036.34
2024-05-09T09:18:02.312Z,102030.28
2024-05-09T09:20:36.420Z,102014.75
2024-05-09T09:23:09.054Z,102019.06
2024-05-09T09:25:40.287Z,102028.00
2024-05-09T09:28:13.104Z,102028.03
2024-05-09T09:30:41.322Z,102024.28
2024-05-09T09:33:16.238Z,102024.63
2024-05-09T09:35:44.212Z,102014.25
2024-05-09T09:38:21.084Z,102019.13
2024-05-09T09:40:50.566Z,102015.00
2024-05-09T09:43:23.085Z,102022.28
2024-05-09T09:45:53.744Z,102022.28
2024-05-09T09:48:28.627Z,102017.63
2024-05-09T09:50:58.095Z,102019.50
2024-05-09T09:53:30.571Z,102010.16
2024-05-09T09:56:00.107Z,102008.59
2024-05-09T09:58:31.380Z,102010.44
2024-05-09T10:01:00.263Z,102003.41
2024-05-09T10:03:33.966Z,102011.16
2024-05-09T10:06:04.145Z,101997.19
2024-05-09T10:08:34.352Z,102003.19
2024-05-09T10:11:05.212Z,101997.88
2024-05-09T10:13:36.424Z,101989.56
2024-05-09T10:16:09.243Z,102000.69
2024-05-09T10:18:42.981Z,101996.69
2024-05-09T10:21:18.147Z,101990.81
2024-05-09T10:23:59.703Z,101991.63
2024-05-09T10:26:35.175Z,101992.38
2024-05-09T10:29:13.957Z,101984.72
2024-05-09T10:31:44.286Z,101979.09
2024-05-09T10:34:22.809Z,101978.41
2024-05-09T10:36:56.273Z,101972.13
2024-05-09T10:39:27.951Z,101978.16
2024-05-09T10:41:57.163Z,101966.91
2024-05-09T10:44:27.401Z,101971.25
2024-05-09T10:46:56.318Z,101956.44
2024-05-09T10:49:29.119Z,101958.41
2024-05-09T10:51:58.311Z,101953.44
2024-05-09T10:54:38.145Z,101957.53
2024-05-09T10:57:08.182Z,101953.31
2024-05-09T10:59:39.688Z,101952.41
2024-05-09T11:02:08.506Z,101954.66
2024-05-09T11:04:42.144Z,101957.00
2024-05-09T11:07:15.291Z,101946.31
2024-05-09T11:09:45.974Z,101948.34
2024-05-09T11:12:15.294Z,101949.34
2024-05-09T11:14:55.488Z,101957.19
2024-05-09T11:17:25.356Z,101944.09
2024-05-09T11:19:58.005Z,101942.72
2024-05-09T11:22:33.219Z,101948.56
2024-05-09T11:25:04.430Z,101944.41
2024-05-09T11:27:32.387Z,101939.53
2024-05-09T11:30:04.326Z,101933.91
2024-05-09T11:32:32.804Z,101933.69
2024-05-09T11:35:07.222Z,101923.53
2024-05-09T11:37:37.156Z,101925.66
2024-05-09T11:40:13.909Z,101920.53
2024-05-09T11:42:52.460Z,101912.63
2024-05-09T11:45:23.250Z,101915.63
2024-05-09T11:47:51.971Z,101919.47
2024-05-09T11:50:29.988Z,101907.28
2024-05-09T11:53:02.842Z,101903.50
2024-05-09T11:55:36.362Z,101905.16
2024-05-09T11:58:05.498Z,101898.63
2024-05-09T12:00:37.543Z,101892.56
2024-05-09T12:03:06.549Z,101895.16
2024-05-09T12:05:39.537Z,101891.00
2024-05-09T12:08:08.410Z,101888.25
2024-05-09T12:10:39.485Z,101881.25
2024-05-09T12:13:07.870Z,101883.91
2024-05-09T12:15:39.453Z,101880.28
2024-05-09T12:18:08.316Z,101880.34
2024-05-09T12:20:41.323Z,101873.88
2024-05-09T12:23:10.491Z,101877.03
2024-05-09T12:25:41.295Z,101872.84
2024-05-09T12:28:09.550Z,101877.88
2024-05-09T12:30:41.535Z,101871.34
2024-05-09T12:33:12.485Z,101883.59
2024-05-09T12:35:48.172Z,101867.53
2024-05-09T12:38:18.454Z,101866.84
2024-05-09T12:40:49.386Z,101865.75
2024-05-09T12:43:17.542Z,101849.94
2024-05-09T12:45:48.464Z,101858.78
2024-05-09T12:50:49.588Z,101856.31
2024-05-09T12:53:17.489Z,101854.34
2024-05-09T12:55:56.741Z,101851.53
2024-05-09T12:58:28.490Z,101860.66
2024-05-09T13:00:59.519Z,101853.88
2024-05-09T13:03:27.528Z,101848.50
2024-05-09T13:06:01.346Z,101840.63
2024-05-09T13:08:29.524Z,101832.06
2024-05-09T13:10:59.755Z,101838.41
2024-05-09T13:13:29.355Z,101833.44
2024-05-09T13:15:59.680Z,101835.63
2024-05-09T13:18:27.777Z,101835.53
2024-05-09T13:21:00.381Z,101835.81
2024-05-09T13:23:28.518Z,101825.22
2024-05-09T13:25:59.452Z,101827.44
2024-05-09T13:28:27.693Z,101822.72
2024-05-09T13:30:58.469Z,101825.16
2024-05-09T13:33:26.623Z,101819.56
2024-05-09T13:35:57.485Z,101820.16
2024-05-09T13:38:28.768Z,101816.59
2024-05-09T13:40:59.549Z,101809.47
2024-05-09T13:43:27.695Z,101810.13
2024-05-09T13:45:57.890Z,101794.56
2024-05-09T13:48:26.534Z,101797.84
2024-05-09T13:50:56.599Z,101798.94
2024-05-09T13:53:25.444Z,101797.22
2024-05-09T13:55:58.207Z,101787.09
2024-05-09T13:58:27.455Z,101799.78
2024-05-09T14:00:58.322Z,101791.00
2024-05-09T14:03:30.710Z,101788.53
2024-05-09T14:06:00.682Z,101778.22
2024-05-09T14:08:30.462Z,101779.59
2024-05-09T14:11:03.345Z,101786.25
2024-05-09T14:13:32.461Z,101779.75
2024-05-09T14:16:02.687Z,101769.41
2024-05-09T14:18:30.567Z,101768.63
2024-05-09T14:21:00.555Z,101771.38
2024-05-09T14:23:29.479Z,101771.00
2024-05-09T14:25:59.617Z,101772.09
2024-05-09T14:28:31.557Z,101779.78
2024-05-09T14:31:01.641Z,101764.88
2024-05-09T14:33:31.670Z,101764.25
2024-05-09T14:36:01.688Z,101767.47
2024-05-09T14:38:30.503Z,101764.31
2024-05-09T14:41:00.857Z,101750.97
2024-05-09T14:43:32.613Z,101755.56
2024-05-09T14:46:02.740Z,101748.69
2024-05-09T14:48:30.768Z,101748.44
2024-05-09T14:51:00.519Z,101752.09
2024-05-09T14:53:28.976Z,101748.69
2024-05-09T14:55:59.558Z,101747.66
2024-05-09T14:58:30.786Z,101747.47
2024-05-09T15:01:00.711Z,101731.13
2024-05-09T15:03:29.085Z,101729.63
2024-05-09T15:05:59.600Z,101741.13
2024-05-09T15:08:28.110Z,101729.72
2024-05-09T15:10:58.546Z,101731.16
2024-05-09T15:13:27.729Z,101727.97
2024-05-09T15:16:00.402Z,101724.91
2024-05-09T15:18:29.770Z,101726.53
2024-05-09T15:20:59.687Z,101722.34
2024-05-09T15:23:28.048Z,101712.56
2024-05-09T15:25:58.586Z,101715.31
2024-05-09T15:28:27.171Z,101710.63
2024-05-09T15:30:57.405Z,101713.28
2024-05-09T15:33:29.725Z,101709.91
2024-05-09T15:35:59.365Z,101709.00
2024-05-09T15:38:28.606Z,101705.31
2024-05-09T15:40:58.406Z,101713.38
2024-05-09T15:43:28.771Z,101711.47
2024-05-09T15:45:58.396Z,101707.72
2024-05-09T15:48:29.740Z,101707.72
2024-05-09T15:50:59.731Z,101708.81
2024-05-09T15:53:29.119Z,101711.19
2024-05-09T15:55:59.378Z,101714.34
2024-05-09T15:58:27.723Z,101699.84
2024-05-09T16:00:57.898Z,101703.28
2024-05-09T16:03:26.735Z,101698.22
2024-05-09T16:05:59.513Z,101703.69
2024-05-09T16:08:27.764Z,101699.25
2024-05-09T16:10:58.835Z,101696.34
2024-05-09T16:13:26.871Z,101694.97
2024-05-09T16:15:56.780Z,101694.69
2024-05-09T16:18:25.728Z,101694.78
2024-05-09T16:21:00.070Z,101688.06
2024-05-09T16:23:31.682Z,101681.59
2024-05-09T16:26:01.822Z,101687.25
2024-05-09T16:28:30.805Z,101686.16
2024-05-09T16:31:01.545Z,101682.78
2024-05-09T16:33:30.960Z,101690.25
2024-05-09T16:36:00.893Z,101683.06
2024-05-09T16:38:31.688Z,101683.63
2024-05-09T16:41:01.518Z,101683.13
2024-05-09T16:43:30.690Z,101686.38
2024-05-09T16:46:00.504Z,101684.91
2024-05-09T16:48:30.773Z,101680.19
2024-05-09T16:51:00.482Z,101678.00
2024-05-09T16:53:32.698Z,101680.81
2024-05-09T16:56:02.500Z,101675.69
2024-05-09T16:58:31.732Z,101679.75
2024-05-09T17:01:01.629Z,101673.00
2024-05-09T17:03:30.252Z,101677.22
2024-05-09T17:06:03.751Z,101677.13
2024-05-09T17:08:36.947Z,101677.34
2024-05-09T17:11:07.797Z,101676.16
2024-05-09T17:13:39.349Z,101679.59
2024-05-09T17:16:11.762Z,101677.94
2024-05-09T17:18:40.344Z,101679.06
2024-05-09T17:21:11.736Z,101676.31
2024-05-09T17:23:42.935Z,101672.88
2024-05-09T17:26:13.763Z,101670.50
2024-05-09T17:28:41.908Z,101664.00
2024-05-09T17:31:12.794Z,101670.41
2024-05-09T17:33:42.473Z,101666.06
2024-05-09T17:36:13.769Z,101665.00
2024-05-09T17:38:45.279Z,101668.38
2024-05-09T17:41:15.790Z,101663.50
2024-05-09T17:43:43.905Z,101666.81
2024-05-09T17:46:14.800Z,101668.31
2024-05-09T17:48:43.320Z,101670.31
2024-05-09T17:51:13.767Z,101664.28
2024-05-09T17:53:44.922Z,101667.84
2024-05-09T17:56:14.803Z,101668.25
2024-05-09T17:58:43.422Z,101667.97
2024-05-09T18:01:14.955Z,101666.06
2024-05-09T18:03:43.729Z,101667.53
2024-05-09T18:06:13.797Z,101669.50
2024-05-09T18:08:42.156Z,101673.03
2024-05-09T18:11:14.927Z,101678.75
2024-05-09T18:13:43.129Z,101673.63
2024-05-09T18:16:13.948Z,101675.69
2024-05-09T18:18:42.499Z,101671.38
2024-05-09T18:21:12.873Z,101671.97
2024-05-09T18:23:41.678Z,101673.63
2024-05-09T18:26:14.839Z,101662.13
2024-05-09T18:28:43.418Z,101675.50
2024-05-09T18:31:13.870Z,101669.13
2024-05-09T18:33:42.472Z,101673.38
2024-05-09T18:36:13.854Z,101673.19
2024-05-09T18:38:44.955Z,101668.72
2024-05-09T18:41:15.883Z,101671.59
2024-05-09T18:43:50.364Z,101674.94
2024-05-09T18:46:18.942Z,101684.72
2024-05-09T18:48:50.142Z,101684.53
2024-05-09T18:51:18.460Z,101683.84
2024-05-09T18:53:49.885Z,101688.63
2024-05-09T18:56:20.144Z,101691.91
2024-05-09T18:58:51.063Z,101695.63
2024-05-09T19:01:18.977Z,101695.06
2024-05-09T19:03:50.823Z,101690.75
2024-05-09T19:06:22.773Z,101694.72
2024-05-09T19:08:55.105Z,101700.69
2024-05-09T19:11:25.060Z,101694.72
2024-05-09T19:13:57.003Z,101693.41
2024-05-09T19:16:24.194Z,101702.38
2024-05-09T19:18:57.462Z,101701.75
2024-05-09T19:21:25.050Z,101707.94
2024-05-09T19:23:55.917Z,101706.16
2024-05-09T19:26:26.308Z,101708.19
2024-05-09T19:28:56.984Z,101717.56
2024-05-09T19:31:27.251Z,101712.53
2024-05-09T19:33:55.111Z,101713.88
2024-05-09T19:36:25.949Z,101714.19
2024-05-09T19:38:53.604Z,101717.56
2024-05-09T19:41:23.889Z,101713.38
2024-05-09T19:43:55.938Z,101715.75
2024-05-09T19:46:26.228Z,101723.44
2024-05-09T19:48:55.197Z,101722.56
2024-05-09T19:51:25.754Z,101721.53
2024-05-09T19:53:55.979Z,101726.59
2024-05-09T19:56:26.311Z,101731.25
2024-05-09T19:58:57.982Z,101728.72
2024-05-09T20:01:27.893Z,101728.41
2024-05-09T20:03:59.214Z,101735.66
2024-05-09T20:06:30.714Z,101725.25
2024-05-09T20:08:59.679Z,101726.59
2024-05-09T20:11:33.307Z,101732.16
2024-05-09T20:14:04.189Z,101731.84
2024-05-09T20:16:33.888Z,101739.56
2024-05-09T20:19:03.103Z,101740.44
2024-05-09T20:21:32.809Z,101735.16
2024-05-09T20:24:01.112Z,101745.38
2024-05-09T20:26:31.208Z,101746.22
2024-05-09T20:28:59.993Z,101745.13
2024-05-09T20:31:32.882Z,101746.13
2024-05-09T20:34:02.047Z,101748.56
2024-05-09T20:36:32.193Z,101745.25
2024-05-09T20:39:01.030Z,101745.56
2024-05-09T20:41:32.035Z,101741.69
2024-05-09T20:44:04.048Z,101740.94
2024-05-09T20:46:36.825Z,101739.72
2024-05-09T20:49:06.180Z,101742.78
2024-05-09T20:51:36.226Z,101735.47
2024-05-09T20:54:05.054Z,101735.50
2024-05-09T20:56:35.175Z,101731.22
2024-05-09T20:59:04.066Z,101731.38
2024-05-09T21:01:37.080Z,101731.25
2024-05-09T21:04:06.322Z,101740.53
2024-05-09T21:06:36.206Z,101745.59
2024-05-09T21:09:05.055Z,101745.00
2024-05-09T21:11:35.263Z,101739.97
2024-05-09T21:14:04.066Z,101732.81
2024-05-09T21:16:38.410Z,101736.13
2024-05-09T21:19:06.112Z,101732.81
2024-05-09T21:21:41.904Z,101735.84
2024-05-09T21:24:10.070Z,101728.38
2024-05-09T21:26:40.224Z,101726.44
2024-05-09T21:29:08.226Z,101736.06
2024-05-09T21:31:41.114Z,101734.34
2024-05-09T21:34:09.467Z,101733.50
2024-05-09T21:36:40.127Z,101737.38
2024-05-09T21:39:09.244Z,101735.84
2024-05-09T21:41:39.275Z,101736.94
2024-05-09T21:44:08.098Z,101744.19
2024-05-09T21:46:40.913Z,101730.38
2024-05-09T21:49:09.303Z,101731.47
2024-05-09T21:51:40.138Z,101727.81
2024-05-09T21:54:08.253Z,101725.66
2024-05-09T21:56:39.125Z,101725.31
2024-05-09T21:59:07.263Z,101728.69
2024-05-09T22:01:40.236Z,101731.25
2024-05-09T22:04:08.335Z,101725.09
2024-05-09T22:06:39.135Z,101729.41
2024-05-09T22:09:07.289Z,101723.06
2024-05-09T22:11:38.193Z,101729.13
2024-05-09T22:14:06.282Z,101729.69
2024-05-09T22:16:36.247Z,101729.78
2024-05-09T22:19:07.684Z,101728.13
2024-05-09T22:21:38.112Z,101728.50
2024-05-09T22:24:07.163Z,101737.06
2024-05-09T22:26:39.958Z,101732.06
2024-05-09T22:29:09.169Z,101740.31
2024-05-09T22:31:38.956Z,101732.25
2024-05-09T22:34:11.272Z,101736.78
2024-05-09T22:36:40.959Z,101745.44
2024-05-09T22:39:10.179Z,101742.81
2024-05-09T22:41:40.020Z,101738.44
2024-05-09T22:44:09.197Z,101739.44
2024-05-09T22:46:39.012Z,101730.91
2024-05-09T22:49:11.490Z,101727.13
2024-05-09T22:51:41.989Z,101725.53
2024-05-09T22:54:10.709Z,101726.94
2024-05-09T22:56:41.207Z,101727.84
2024-05-09T22:59:09.795Z,101724.00
2024-05-09T23:01:40.273Z,101727.53
2024-05-09T23:04:11.446Z,101725.00
2024-05-09T23:06:44.036Z,101720.25
2024-05-09T23:09:13.226Z,101726.13
2024-05-09T23:11:45.743Z,101725.56
2024-05-09T23:14:14.225Z,101721.13
2024-05-09T23:16:45.059Z,101723.88
2024-05-09T23:19:16.378Z,101725.44
2024-05-09T23:21:46.289Z,101720.19
2024-05-09T23:24:14.743Z,101725.91
2024-05-09T23:26:46.248Z,101727.28
2024-05-09T23:29:14.789Z,101727.03
2024-05-09T23:31:45.273Z,101719.81
2024-05-09T23:34:17.385Z,101718.31
2024-05-09T23:36:48.306Z,101718.72
2024-05-09T23:39:18.514Z,101708.03
2024-05-09T23:41:49.266Z,101718.34
2024-05-09T23:44:17.774Z,101711.72
2024-05-09T23:46:48.097Z,101716.56
2024-05-09T23:49:20.294Z,101717.44
2024-05-09T23:51:50.086Z,101712.44
2024-05-09T23:54:19.281Z,101717.28
2024-05-09T23:56:49.066Z,101708.00
2024-05-09T23:59:19.289Z,101711.13
